Springersville, Indiana
Current Conditions -  °F | °C
As of 9:35 AM on Wednesday 22 Oct 2014 (Local Time) from KI67 Reporting Station
Overcast Overcast  
Wind Chill:   Ceiling: 3300
Heat Index:   Visibility: 10mi
Dew Point:   Wind: 5mph
Humidity: 76%   Direction: 10°N
Pressure: 30.29"   Gusts: NA
Location:  39.6926°N, 84.9821°W
Report Text: KI67 221335Z AUTO 01004KT 10SM OVC033 07/03 A3029 RMK AO1
Loading
Personal Weather Stations






























Interactive Weather Map
Tropical Storm Tracking
New forecast layout! Learn more

10-Day Weather Forecast

Advertisements
Track Severe Weather on mobile